createdAt,value
2023-08-03T00:00:57.738Z,90.10
2023-08-03T00:03:24.363Z,90.86
2023-08-03T00:05:50.917Z,91.77
2023-08-03T00:08:17.271Z,92.60
2023-08-03T00:10:43.679Z,93.05
2023-08-03T00:13:10.072Z,93.20
2023-08-03T00:15:36.505Z,93.21
2023-08-03T00:18:03.096Z,93.19
2023-08-03T00:20:29.666Z,93.44
2023-08-03T00:22:56.476Z,93.54
2023-08-03T00:25:23.956Z,93.70
2023-08-03T00:27:50.322Z,93.72
2023-08-03T00:30:17.010Z,93.79
2023-08-03T00:32:43.415Z,93.83
2023-08-03T00:35:10.258Z,93.69
2023-08-03T00:37:39.823Z,92.70
2023-08-03T00:40:07.663Z,91.86
2023-08-03T00:42:34.259Z,91.01
2023-08-03T00:45:00.686Z,90.37
2023-08-03T00:47:27.291Z,89.49
2023-08-03T00:49:53.731Z,89.38
2023-08-03T00:52:21.264Z,88.94
2023-08-03T00:54:47.743Z,89.25
2023-08-03T00:57:14.120Z,90.00
2023-08-03T00:59:40.525Z,89.94
2023-08-03T01:02:32.928Z,89.77
2023-08-03T01:04:59.411Z,89.76
2023-08-03T01:07:26.706Z,89.91
2023-08-03T01:09:53.137Z,89.72
2023-08-03T01:12:19.881Z,88.60
2023-08-03T01:14:46.599Z,87.47
2023-08-03T01:17:13.472Z,86.40
2023-08-03T01:19:39.883Z,86.21
2023-08-03T01:22:10.482Z,85.04
2023-08-03T01:24:36.948Z,84.98
2023-08-03T01:27:04.288Z,84.57
2023-08-03T01:29:30.630Z,84.04
2023-08-03T01:31:59.194Z,83.08
2023-08-03T01:34:26.242Z,82.57
2023-08-03T01:36:54.201Z,83.03
2023-08-03T01:39:22.168Z,82.65
2023-08-03T01:41:48.499Z,82.34
2023-08-03T01:44:28.361Z,82.41
2023-08-03T01:46:56.432Z,82.03
2023-08-03T01:49:24.675Z,81.63
2023-08-03T01:51:51.559Z,81.46
2023-08-03T01:54:17.983Z,81.24
2023-08-03T01:56:44.624Z,81.60
2023-08-03T01:59:11.806Z,81.54
2023-08-03T02:01:38.946Z,81.75
2023-08-03T02:04:05.505Z,82.34
2023-08-03T02:06:32.159Z,82.55
2023-08-03T02:08:58.618Z,83.54
2023-08-03T02:11:26.280Z,83.81
2023-08-03T02:13:52.730Z,84.88
2023-08-03T02:16:25.254Z,85.06
2023-08-03T02:18:52.381Z,85.01
2023-08-03T02:21:18.904Z,85.05
2023-08-03T02:23:45.258Z,85.34
2023-08-03T02:26:11.664Z,85.55
2023-08-03T02:28:38.084Z,85.80
2023-08-03T02:31:04.567Z,85.70
2023-08-03T02:33:30.989Z,85.84
2023-08-03T02:35:57.409Z,85.75
2023-08-03T02:38:23.802Z,85.80
2023-08-03T02:40:50.128Z,86.00
2023-08-03T02:43:16.610Z,86.16
2023-08-03T02:45:43.001Z,86.12
2023-08-03T02:48:09.366Z,86.32
2023-08-03T02:50:35.869Z,86.17
2023-08-03T02:53:02.230Z,86.30
2023-08-03T02:55:28.623Z,86.12
2023-08-03T02:57:55.130Z,86.10
2023-08-03T03:00:22.773Z,85.80
2023-08-03T03:02:49.238Z,85.88
2023-08-03T03:05:16.011Z,86.16
2023-08-03T03:07:42.513Z,85.46
2023-08-03T03:10:09.238Z,85.91
2023-08-03T03:12:35.630Z,86.24
2023-08-03T03:15:02.141Z,86.05
2023-08-03T03:17:28.580Z,86.16
2023-08-03T03:19:55.303Z,86.49
2023-08-03T03:22:21.649Z,86.74
2023-08-03T03:24:48.120Z,86.94
2023-08-03T03:27:14.562Z,87.06
2023-08-03T03:29:40.945Z,87.14
2023-08-03T03:32:08.106Z,87.03
2023-08-03T03:34:34.645Z,87.55
2023-08-03T03:37:01.003Z,88.15
2023-08-03T03:39:27.361Z,89.44
2023-08-03T03:41:53.864Z,89.82
2023-08-03T03:44:20.249Z,90.72
2023-08-03T03:46:46.616Z,91.04
2023-08-03T03:49:12.981Z,91.47
2023-08-03T03:51:39.298Z,91.87
2023-08-03T03:54:05.665Z,91.63
2023-08-03T03:56:32.090Z,91.62
2023-08-03T03:58:58.516Z,91.51
2023-08-03T04:01:25.056Z,91.00
2023-08-03T04:03:51.614Z,90.85
2023-08-03T04:06:18.030Z,91.16
2023-08-03T04:08:44.403Z,91.50
2023-08-03T04:11:10.982Z,91.45
2023-08-03T04:13:37.428Z,92.12
2023-08-03T04:16:04.135Z,92.89
2023-08-03T04:18:30.564Z,93.68
2023-08-03T04:20:56.963Z,94.62
2023-08-03T04:23:23.301Z,95.26
2023-08-03T04:25:49.696Z,95.72
2023-08-03T04:28:16.113Z,96.73
2023-08-03T04:30:42.543Z,97.53
2023-08-03T04:33:08.937Z,98.79
2023-08-03T04:35:35.307Z,99.52
2023-08-03T04:38:01.664Z,100.00
2023-08-03T04:40:28.148Z,100.00
2023-08-03T04:42:54.587Z,100.00
2023-08-03T04:45:21.122Z,100.00
2023-08-03T04:47:47.612Z,100.00
2023-08-03T04:50:14.196Z,100.00
2023-08-03T04:52:40.538Z,100.00
2023-08-03T04:55:07.368Z,100.00
2023-08-03T04:57:33.734Z,100.00
2023-08-03T05:00:00.199Z,100.00
2023-08-03T05:02:26.760Z,100.00
2023-08-03T05:04:53.224Z,100.00
2023-08-03T05:07:19.640Z,100.00
2023-08-03T05:09:46.006Z,100.00
2023-08-03T05:12:12.446Z,100.00
2023-08-03T05:14:38.922Z,100.00
2023-08-03T05:17:05.798Z,100.00
2023-08-03T05:19:32.175Z,100.00
2023-08-03T05:21:59.623Z,100.00
2023-08-03T05:24:26.646Z,100.00
2023-08-03T05:26:52.995Z,100.00
2023-08-03T05:29:19.765Z,100.00
2023-08-03T05:31:49.419Z,100.00
2023-08-03T05:34:16.501Z,100.00
2023-08-03T05:36:42.943Z,100.00
2023-08-03T05:39:09.596Z,100.00
2023-08-03T05:41:36.645Z,100.00
2023-08-03T05:44:03.574Z,100.00
2023-08-03T05:46:33.759Z,100.00
2023-08-03T05:49:00.217Z,100.00
2023-08-03T05:51:28.378Z,100.00
2023-08-03T05:53:56.188Z,100.00
2023-08-03T05:56:24.099Z,100.00
2023-08-03T05:58:51.716Z,99.29
2023-08-03T06:01:22.317Z,99.00
2023-08-03T06:03:51.386Z,98.71
2023-08-03T06:06:22.553Z,98.61
2023-08-03T06:08:51.807Z,98.34
2023-08-03T06:11:26.353Z,98.20
2023-08-03T06:13:54.120Z,98.69
2023-08-03T06:16:22.677Z,98.52
2023-08-03T06:18:51.569Z,98.37
2023-08-03T06:21:18.685Z,98.70
2023-08-03T06:23:50.119Z,98.97
2023-08-03T06:26:18.991Z,99.16
2023-08-03T06:28:46.439Z,98.88
2023-08-03T06:31:16.918Z,99.19
2023-08-03T06:33:45.069Z,98.72
2023-08-03T06:36:13.967Z,98.44
2023-08-03T06:38:41.296Z,98.44
2023-08-03T06:41:07.829Z,98.65
2023-08-03T06:43:34.489Z,98.85
2023-08-03T06:46:00.889Z,99.09
2023-08-03T06:48:27.521Z,99.13
2023-08-03T06:50:55.141Z,99.83
2023-08-03T06:53:22.466Z,100.00
2023-08-03T06:55:51.449Z,100.00
2023-08-03T06:58:19.000Z,100.00
2023-08-03T07:00:46.465Z,100.00
2023-08-03T07:03:13.810Z,100.00
2023-08-03T07:05:41.194Z,100.00
2023-08-03T07:08:08.318Z,100.00
2023-08-03T07:10:38.174Z,100.00
2023-08-03T07:13:05.290Z,100.00
2023-08-03T07:15:35.645Z,100.00
2023-08-03T07:18:07.008Z,100.00
2023-08-03T07:20:37.272Z,100.00
2023-08-03T07:23:04.960Z,100.00
2023-08-03T07:25:33.378Z,100.00
2023-08-03T07:28:00.649Z,100.00
2023-08-03T07:30:27.188Z,100.00
2023-08-03T07:32:54.346Z,100.00
2023-08-03T07:35:20.837Z,100.00
2023-08-03T07:37:47.195Z,100.00
2023-08-03T07:40:13.641Z,100.00
2023-08-03T07:42:40.052Z,100.00
2023-08-03T07:45:07.033Z,100.00
2023-08-03T07:47:33.455Z,100.00
2023-08-03T07:50:01.004Z,100.00
2023-08-03T07:52:27.491Z,100.00
2023-08-03T07:54:55.898Z,100.00
2023-08-03T07:57:22.607Z,100.00
2023-08-03T07:59:50.101Z,100.00
2023-08-03T08:02:16.798Z,100.00
2023-08-03T08:04:43.486Z,100.00
2023-08-03T08:07:10.108Z,100.00
2023-08-03T08:09:36.485Z,100.00
2023-08-03T08:12:05.462Z,100.00
2023-08-03T08:14:31.808Z,100.00
2023-08-03T08:17:11.097Z,100.00
2023-08-03T08:19:39.177Z,100.00
2023-08-03T08:22:16.536Z,100.00
2023-08-03T08:24:45.098Z,100.00
2023-08-03T08:27:11.970Z,100.00
2023-08-03T08:29:38.745Z,99.67
2023-08-03T08:32:06.103Z,98.62
2023-08-03T08:34:32.832Z,98.96
2023-08-03T08:36:59.569Z,98.55
2023-08-03T08:39:26.509Z,99.08
2023-08-03T08:41:53.141Z,99.18
2023-08-03T08:44:19.678Z,99.05
2023-08-03T08:46:46.626Z,98.67
2023-08-03T09:01:49.106Z,95.74
2023-08-03T09:06:46.944Z,96.86
2023-08-03T09:09:13.573Z,97.37
2023-08-03T09:11:41.965Z,97.26
2023-08-03T09:14:10.023Z,97.72
2023-08-03T09:16:38.604Z,97.53
2023-08-03T09:19:05.246Z,98.29
2023-08-03T09:34:14.749Z,96.93
2023-08-03T09:37:09.579Z,95.79
2023-08-03T09:39:35.927Z,95.28
2023-08-03T09:42:06.762Z,95.11
2023-08-03T09:44:37.383Z,95.55
2023-08-03T09:47:04.809Z,94.99
2023-08-03T09:49:33.426Z,94.94
2023-08-03T09:52:06.624Z,94.63
2023-08-03T09:57:30.025Z,95.42
2023-08-03T10:00:04.952Z,95.26
2023-08-03T10:02:40.211Z,95.66
2023-08-03T10:05:10.858Z,95.98
2023-08-03T10:07:43.555Z,95.60
2023-08-03T10:10:14.591Z,95.73
2023-08-03T10:12:45.515Z,95.73
2023-08-03T10:15:13.388Z,94.98
2023-08-03T10:17:40.846Z,94.98
2023-08-03T10:20:10.683Z,94.22
2023-08-03T10:22:37.692Z,94.00
2023-08-03T10:25:20.443Z,94.19
2023-08-03T10:28:12.539Z,94.45
2023-08-03T10:31:16.255Z,94.67
2023-08-03T10:33:47.757Z,94.99
2023-08-03T10:36:30.172Z,94.10
2023-08-03T10:39:02.632Z,94.11
2023-08-03T10:41:36.517Z,94.29
2023-08-03T10:44:06.021Z,94.02
2023-08-03T10:46:34.380Z,93.58
2023-08-03T10:49:24.409Z,92.86
2023-08-03T10:51:56.649Z,92.77
2023-08-03T10:54:30.581Z,92.61
2023-08-03T10:57:06.824Z,92.02
2023-08-03T10:59:46.985Z,92.00
2023-08-03T11:02:20.257Z,91.14
2023-08-03T11:04:47.034Z,89.93
2023-08-03T11:07:17.350Z,89.33
2023-08-03T11:09:46.654Z,88.99
2023-08-03T11:12:15.129Z,88.04
2023-08-03T11:14:42.632Z,87.65
2023-08-03T11:17:09.095Z,87.50
2023-08-03T11:19:39.400Z,87.38
2023-08-03T11:22:06.622Z,87.35
2023-08-03T11:24:33.460Z,87.19
2023-08-03T11:27:00.490Z,86.93
2023-08-03T11:29:27.323Z,86.56
2023-08-03T11:31:53.891Z,86.20
2023-08-03T11:34:21.334Z,86.15
2023-08-03T11:36:49.247Z,85.04
2023-08-03T11:39:15.874Z,84.05
2023-08-03T11:41:43.780Z,83.85
2023-08-03T11:44:10.286Z,83.38
2023-08-03T11:46:37.036Z,83.11
2023-08-03T11:49:04.094Z,82.65
2023-08-03T11:51:32.126Z,82.64
2023-08-03T11:54:02.256Z,82.22
2023-08-03T11:56:41.966Z,81.98
2023-08-03T11:59:10.573Z,82.28
2023-08-03T12:01:45.817Z,82.40
2023-08-03T12:04:15.327Z,81.78
2023-08-03T12:09:26.560Z,80.76
2023-08-03T12:12:11.106Z,80.49
2023-08-03T12:14:37.804Z,80.97
2023-08-03T12:17:05.560Z,79.89
2023-08-03T12:19:35.229Z,80.00
2023-08-03T12:22:03.609Z,80.98
2023-08-03T12:24:30.513Z,80.77
2023-08-03T12:27:04.482Z,81.29
2023-08-03T12:29:40.611Z,81.32
2023-08-03T12:32:09.265Z,79.57
2023-08-03T12:34:35.853Z,78.63
2023-08-03T12:37:02.408Z,78.65
2023-08-03T12:39:29.597Z,79.03
2023-08-03T12:41:56.069Z,78.15
2023-08-03T12:44:22.486Z,77.68
2023-08-03T12:46:49.742Z,77.69
2023-08-03T12:49:19.188Z,78.27
2023-08-03T12:51:45.690Z,78.43
2023-08-03T12:54:12.149Z,78.27
2023-08-03T12:56:39.735Z,79.21
2023-08-03T12:59:06.773Z,79.61
2023-08-03T13:01:34.327Z,79.10
2023-08-03T13:04:01.438Z,79.72
2023-08-03T13:06:28.628Z,81.64
2023-08-03T13:08:55.482Z,83.65
2023-08-03T13:11:22.230Z,84.65
2023-08-03T13:13:49.058Z,85.33
2023-08-03T13:16:16.301Z,86.39
2023-08-03T13:21:13.006Z,85.87
2023-08-03T13:23:40.396Z,85.84
2023-08-03T13:26:07.860Z,85.64
2023-08-03T13:28:34.377Z,84.66
2023-08-03T13:31:00.954Z,85.33
2023-08-03T13:33:27.448Z,85.36
2023-08-03T13:35:53.788Z,85.53
2023-08-03T13:38:22.269Z,84.83
2023-08-03T13:40:49.174Z,84.81
2023-08-03T13:43:15.598Z,84.48
2023-08-03T13:45:43.488Z,83.44
2023-08-03T13:48:12.229Z,82.24
2023-08-03T13:50:38.727Z,81.95
2023-08-03T13:53:05.195Z,82.88
2023-08-03T13:55:31.553Z,82.49
2023-08-03T14:00:27.581Z,82.43
2023-08-03T14:02:54.669Z,82.02
2023-08-03T14:07:51.197Z,81.70
2023-08-03T14:22:47.552Z,81.51
2023-08-03T14:30:20.273Z,83.66
2023-08-03T14:32:47.962Z,84.26
2023-08-03T14:37:44.356Z,84.07
2023-08-03T14:40:11.262Z,84.48
2023-08-03T14:42:37.836Z,85.08
2023-08-03T14:45:05.079Z,85.47
2023-08-03T14:47:31.562Z,85.51
2023-08-03T14:52:27.904Z,85.07
2023-08-03T14:55:03.682Z,86.05
2023-08-03T14:57:30.190Z,86.29
2023-08-03T14:59:56.612Z,86.50
2023-08-03T15:02:23.245Z,86.66
2023-08-03T15:04:49.910Z,87.15
2023-08-03T15:07:16.413Z,87.36
2023-08-03T15:09:43.248Z,87.30
2023-08-03T15:12:10.059Z,87.87
2023-08-03T15:14:36.623Z,88.19
2023-08-03T15:17:22.502Z,87.46
2023-08-03T15:19:49.901Z,88.07
2023-08-03T15:22:16.727Z,88.00
2023-08-03T15:24:48.522Z,87.91
2023-08-03T15:34:51.585Z,91.14
2023-08-03T15:37:21.052Z,92.51
2023-08-03T15:39:49.490Z,93.07
2023-08-03T15:42:18.482Z,94.06
2023-08-03T15:44:49.265Z,94.36
2023-08-03T15:47:43.171Z,95.45
2023-08-03T15:50:06.749Z,95.84
2023-08-03T15:52:57.795Z,96.50
2023-08-03T15:57:52.388Z,97.25
2023-08-03T16:00:19.982Z,97.51
2023-08-03T16:02:46.568Z,98.27
2023-08-03T16:05:12.961Z,99.09
2023-08-03T16:07:39.303Z,99.00
2023-08-03T16:10:06.260Z,99.04
2023-08-03T16:12:32.700Z,99.79
2023-08-03T16:14:59.187Z,99.48
2023-08-03T16:17:25.713Z,99.66
2023-08-03T16:19:52.149Z,100.00
2023-08-03T16:22:18.585Z,100.00
2023-08-03T16:24:44.996Z,100.00
2023-08-03T16:27:11.557Z,100.00
2023-08-03T16:29:38.070Z,100.00
2023-08-03T16:32:15.735Z,100.00
2023-08-03T16:37:12.699Z,100.00
2023-08-03T16:39:39.115Z,100.00
2023-08-03T16:42:06.052Z,100.00
2023-08-03T16:44:32.401Z,100.00
2023-08-03T16:46:58.784Z,100.00
2023-08-03T16:49:25.271Z,100.00
2023-08-03T16:51:54.039Z,100.00
2023-08-03T16:54:20.519Z,100.00
2023-08-03T16:56:47.148Z,100.00
2023-08-03T16:59:13.738Z,100.00
2023-08-03T17:01:40.221Z,100.00
2023-08-03T17:04:06.748Z,100.00
2023-08-03T17:06:36.500Z,100.00
2023-08-03T17:09:03.722Z,100.00
2023-08-03T17:11:31.178Z,100.00
2023-08-03T17:13:57.697Z,100.00
2023-08-03T17:16:24.206Z,100.00
2023-08-03T17:18:50.797Z,100.00
2023-08-03T17:21:17.989Z,100.00
2023-08-03T17:23:44.487Z,100.00
2023-08-03T17:26:10.912Z,100.00
2023-08-03T17:28:37.275Z,100.00
2023-08-03T17:31:04.768Z,100.00
2023-08-03T17:33:31.651Z,100.00
2023-08-03T17:35:58.040Z,100.00
2023-08-03T17:38:24.513Z,100.00
2023-08-03T17:40:55.756Z,100.00
2023-08-03T17:43:22.361Z,100.00
2023-08-03T17:45:48.961Z,100.00
2023-08-03T17:48:15.588Z,100.00
2023-08-03T17:50:45.510Z,100.00
2023-08-03T17:53:11.863Z,100.00
2023-08-03T17:55:38.475Z,100.00
2023-08-03T17:58:05.157Z,100.00
2023-08-03T18:00:31.744Z,100.00
2023-08-03T18:02:58.219Z,100.00
2023-08-03T18:05:24.915Z,100.00
2023-08-03T18:07:53.169Z,100.00
2023-08-03T18:10:19.605Z,100.00
2023-08-03T18:12:46.205Z,100.00
2023-08-03T18:15:15.721Z,100.00
2023-08-03T18:17:43.223Z,100.00
2023-08-03T18:20:10.458Z,100.00
2023-08-03T18:22:36.842Z,100.00
2023-08-03T18:25:03.735Z,100.00
2023-08-03T18:27:30.269Z,100.00
2023-08-03T18:29:56.646Z,100.00
2023-08-03T18:32:23.128Z,100.00
2023-08-03T18:34:50.102Z,100.00
2023-08-03T18:37:16.987Z,100.00
2023-08-03T18:39:44.195Z,100.00
2023-08-03T18:42:10.715Z,100.00
2023-08-03T18:44:37.869Z,100.00
2023-08-03T18:47:04.713Z,100.00
2023-08-03T18:49:31.169Z,100.00
2023-08-03T18:51:57.528Z,100.00
2023-08-03T18:54:24.013Z,100.00
2023-08-03T18:56:54.380Z,100.00
2023-08-03T18:59:21.591Z,100.00
2023-08-03T19:01:48.275Z,100.00
2023-08-03T19:04:14.712Z,100.00
2023-08-03T19:06:41.070Z,100.00
2023-08-03T19:09:07.513Z,100.00
2023-08-03T19:11:33.907Z,100.00
2023-08-03T19:14:00.370Z,100.00
2023-08-03T19:16:28.682Z,100.00
2023-08-03T19:18:55.664Z,100.00
2023-08-03T19:21:23.313Z,100.00
2023-08-03T19:23:49.800Z,100.00
2023-08-03T19:26:18.942Z,100.00
2023-08-03T19:28:46.684Z,100.00
2023-08-03T19:31:14.741Z,100.00
2023-08-03T19:33:41.410Z,100.00
2023-08-03T19:36:07.790Z,100.00
2023-08-03T19:38:34.447Z,100.00
2023-08-03T19:41:00.795Z,100.00
2023-08-03T19:43:27.222Z,100.00
2023-08-03T19:45:53.629Z,100.00
2023-08-03T19:48:20.098Z,100.00
2023-08-03T19:56:35.816Z,100.00
2023-08-03T20:11:06.485Z,100.00
2023-08-03T20:13:32.893Z,100.00
2023-08-03T20:15:59.395Z,100.00
2023-08-03T20:18:25.878Z,100.00
2023-08-03T20:20:52.335Z,100.00
2023-08-03T20:23:18.859Z,100.00
2023-08-03T20:25:45.269Z,100.00
2023-08-03T20:28:13.093Z,100.00
2023-08-03T20:30:51.467Z,100.00
2023-08-03T20:33:23.310Z,100.00
2023-08-03T20:40:56.360Z,100.00
2023-08-03T20:45:52.311Z,100.00
2023-08-03T20:53:17.512Z,100.00
2023-08-03T20:55:49.826Z,100.00
2023-08-03T20:58:16.861Z,100.00
2023-08-03T21:00:43.277Z,100.00
2023-08-03T21:03:09.820Z,100.00
2023-08-03T21:05:44.534Z,100.00
2023-08-03T21:08:13.263Z,100.00
2023-08-03T21:13:09.974Z,100.00
2023-08-03T21:15:36.642Z,100.00
2023-08-03T21:18:03.337Z,100.00
2023-08-03T21:20:33.164Z,100.00
2023-08-03T21:22:59.877Z,100.00
2023-08-03T21:25:26.432Z,100.00
2023-08-03T21:27:52.974Z,100.00
2023-08-03T21:30:19.532Z,100.00
2023-08-03T21:32:46.027Z,100.00
2023-08-03T21:35:12.433Z,100.00
2023-08-03T21:37:39.443Z,100.00
2023-08-03T21:40:07.141Z,100.00
2023-08-03T21:42:33.779Z,100.00
2023-08-03T21:45:00.466Z,100.00
2023-08-03T21:47:29.962Z,100.00
2023-08-03T21:49:57.878Z,100.00
2023-08-03T21:52:24.735Z,100.00
2023-08-03T21:54:51.268Z,100.00
2023-08-03T21:57:17.694Z,100.00
2023-08-03T21:59:44.149Z,100.00
2023-08-03T22:02:10.620Z,100.00
2023-08-03T22:04:37.077Z,100.00
2023-08-03T22:07:03.664Z,100.00
2023-08-03T22:09:30.033Z,100.00
2023-08-03T22:11:56.551Z,100.00
2023-08-03T22:14:23.099Z,100.00
2023-08-03T22:16:49.513Z,100.00
2023-08-03T22:19:15.944Z,100.00
2023-08-03T22:21:42.407Z,100.00
2023-08-03T22:24:09.109Z,100.00
2023-08-03T22:26:35.657Z,100.00
2023-08-03T22:29:08.042Z,100.00
2023-08-03T22:31:34.461Z,100.00
2023-08-03T22:34:00.843Z,100.00
2023-08-03T22:36:27.371Z,100.00
2023-08-03T22:38:53.907Z,100.00
2023-08-03T22:41:20.300Z,100.00
2023-08-03T22:43:46.727Z,100.00
2023-08-03T22:46:20.591Z,100.00
2023-08-03T22:48:47.875Z,100.00
2023-08-03T22:51:18.429Z,100.00
2023-08-03T22:53:46.533Z,100.00
2023-08-03T22:56:13.608Z,100.00
2023-08-03T22:58:40.225Z,100.00
2023-08-03T23:01:33.237Z,100.00
2023-08-03T23:03:59.738Z,100.00
2023-08-03T23:06:26.910Z,100.00
2023-08-03T23:08:53.393Z,100.00
2023-08-03T23:11:19.854Z,100.00
2023-08-03T23:13:46.486Z,100.00
2023-08-03T23:16:20.347Z,100.00
2023-08-03T23:18:47.480Z,100.00
2023-08-03T23:21:13.847Z,100.00
2023-08-03T23:23:40.512Z,100.00
2023-08-03T23:26:09.695Z,100.00
2023-08-03T23:28:37.238Z,100.00
2023-08-03T23:31:04.587Z,100.00
2023-08-03T23:33:31.578Z,100.00
2023-08-03T23:35:58.399Z,100.00
2023-08-03T23:38:24.953Z,100.00
2023-08-03T23:40:51.358Z,100.00
2023-08-03T23:43:17.866Z,100.00
2023-08-03T23:45:44.407Z,100.00
2023-08-03T23:48:10.807Z,100.00
2023-08-03T23:50:37.191Z,100.00
2023-08-03T23:53:03.732Z,100.00
2023-08-03T23:55:30.178Z,100.00
2023-08-03T23:57:56.564Z,100.00
